sensor_id;sensor_type;location;lat;lon;timestamp;P1;durP1;ratioP1;P2;durP2;ratioP2
73382;SDS011;61600;48.126;11.542;2023-01-01T00:02:03;63.75;;;35.47;;
73382;SDS011;61600;48.126;11.542;2023-01-01T00:04:29;51.88;;;27.40;;
73382;SDS011;61600;48.126;11.542;2023-01-01T00:09:21;58.85;;;32.75;;
73382;SDS011;61600;48.126;11.542;2023-01-01T00:12:06;63.90;;;33.30;;
73382;SDS011;61600;48.126;11.542;2023-01-01T00:14:32;75.95;;;35.70;;
73382;SDS011;61600;48.126;11.542;2023-01-01T00:16:58;55.67;;;28.45;;
73382;SDS011;61600;48.126;11.542;2023-01-01T00:19:25;56.90;;;27.33;;
73382;SDS011;61600;48.126;11.542;2023-01-01T00:21:50;53.75;;;28.27;;
73382;SDS011;61600;48.126;11.542;2023-01-01T00:24:16;49.80;;;27.83;;
73382;SDS011;61600;48.126;11.542;2023-01-01T00:26:42;47.67;;;25.77;;
73382;SDS011;61600;48.126;11.542;2023-01-01T00:29:08;45.97;;;24.27;;
73382;SDS011;61600;48.126;11.542;2023-01-01T00:31:33;47.30;;;24.55;;
73382;SDS011;61600;48.126;11.542;2023-01-01T00:33:59;44.10;;;21.92;;
73382;SDS011;61600;48.126;11.542;2023-01-01T00:36:25;41.33;;;21.55;;
73382;SDS011;61600;48.126;11.542;2023-01-01T00:38:53;38.90;;;20.63;;
73382;SDS011;61600;48.126;11.542;2023-01-01T00:41:19;36.88;;;17.95;;
73382;SDS011;61600;48.126;11.542;2023-01-01T00:43:45;34.80;;;17.02;;
73382;SDS011;61600;48.126;11.542;2023-01-01T00:46:11;29.58;;;15.40;;
73382;SDS011;61600;48.126;11.542;2023-01-01T00:48:37;31.30;;;14.30;;
73382;SDS011;61600;48.126;11.542;2023-01-01T00:51:03;24.15;;;10.70;;
73382;SDS011;61600;48.126;11.542;2023-01-01T00:53:29;23.98;;;10.85;;
73382;SDS011;61600;48.126;11.542;2023-01-01T00:55:55;17.60;;;9.60;;
73382;SDS011;61600;48.126;11.542;2023-01-01T00:58:22;20.52;;;10.00;;
73382;SDS011;61600;48.126;11.542;2023-01-01T01:00:49;15.55;;;8.45;;
73382;SDS011;61600;48.126;11.542;2023-01-01T01:03:16;20.77;;;9.23;;
73382;SDS011;61600;48.126;11.542;2023-01-01T01:06:09;18.80;;;7.97;;
73382;SDS011;61600;48.126;11.542;2023-01-01T01:08:38;15.30;;;8.85;;
73382;SDS011;61600;48.126;11.542;2023-01-01T01:11:05;21.85;;;10.13;;
73382;SDS011;61600;48.126;11.542;2023-01-01T01:13:36;22.38;;;11.45;;
73382;SDS011;61600;48.126;11.542;2023-01-01T01:16:07;20.17;;;9.52;;
73382;SDS011;61600;48.126;11.542;2023-01-01T01:18:34;15.77;;;8.27;;
73382;SDS011;61600;48.126;11.542;2023-01-01T01:20:59;19.35;;;9.50;;
73382;SDS011;61600;48.126;11.542;2023-01-01T01:23:25;17.52;;;9.15;;
73382;SDS011;61600;48.126;11.542;2023-01-01T01:25:51;16.63;;;9.30;;
73382;SDS011;61600;48.126;11.542;2023-01-01T01:28:17;16.08;;;8.00;;
73382;SDS011;61600;48.126;11.542;2023-01-01T01:30:43;12.13;;;6.95;;
73382;SDS011;61600;48.126;11.542;2023-01-01T01:35:35;9.13;;;5.28;;
73382;SDS011;61600;48.126;11.542;2023-01-01T01:38:01;10.65;;;5.60;;
73382;SDS011;61600;48.126;11.542;2023-01-01T01:40:27;13.00;;;6.18;;
73382;SDS011;61600;48.126;11.542;2023-01-01T01:42:53;11.00;;;5.55;;
73382;SDS011;61600;48.126;11.542;2023-01-01T01:45:19;11.23;;;5.40;;
73382;SDS011;61600;48.126;11.542;2023-01-01T01:47:48;10.05;;;5.07;;
73382;SDS011;61600;48.126;11.542;2023-01-01T01:50:20;11.63;;;5.30;;
73382;SDS011;61600;48.126;11.542;2023-01-01T01:55:58;10.18;;;5.45;;
73382;SDS011;61600;48.126;11.542;2023-01-01T01:58:28;10.07;;;5.47;;
73382;SDS011;61600;48.126;11.542;2023-01-01T02:00:56;10.82;;;5.25;;
73382;SDS011;61600;48.126;11.542;2023-01-01T02:03:23;8.95;;;4.93;;
73382;SDS011;61600;48.126;11.542;2023-01-01T02:05:56;8.05;;;4.65;;
73382;SDS011;61600;48.126;11.542;2023-01-01T02:08:23;11.52;;;5.43;;
73382;SDS011;61600;48.126;11.542;2023-01-01T02:10:50;11.30;;;5.85;;
73382;SDS011;61600;48.126;11.542;2023-01-01T02:13:16;12.38;;;6.15;;
73382;SDS011;61600;48.126;11.542;2023-01-01T02:15:53;12.02;;;6.18;;
73382;SDS011;61600;48.126;11.542;2023-01-01T02:18:27;16.13;;;6.72;;
73382;SDS011;61600;48.126;11.542;2023-01-01T02:21:05;12.30;;;6.63;;
73382;SDS011;61600;48.126;11.542;2023-01-01T02:26:25;14.50;;;6.47;;
73382;SDS011;61600;48.126;11.542;2023-01-01T02:32:03;11.93;;;6.10;;
73382;SDS011;61600;48.126;11.542;2023-01-01T02:34:34;11.35;;;5.90;;
73382;SDS011;61600;48.126;11.542;2023-01-01T02:37:19;10.40;;;5.40;;
73382;SDS011;61600;48.126;11.542;2023-01-01T02:39:53;13.77;;;6.28;;
73382;SDS011;61600;48.126;11.542;2023-01-01T02:42:22;9.68;;;4.63;;
73382;SDS011;61600;48.126;11.542;2023-01-01T02:44:51;11.48;;;5.00;;
73382;SDS011;61600;48.126;11.542;2023-01-01T02:47:20;9.45;;;5.07;;
73382;SDS011;61600;48.126;11.542;2023-01-01T02:49:53;13.15;;;5.82;;
73382;SDS011;61600;48.126;11.542;2023-01-01T02:55:35;10.77;;;5.90;;
73382;SDS011;61600;48.126;11.542;2023-01-01T02:58:23;11.65;;;6.15;;
73382;SDS011;61600;48.126;11.542;2023-01-01T03:02:00;10.00;;;5.05;;
73382;SDS011;61600;48.126;11.542;2023-01-01T03:04:25;12.93;;;6.00;;
73382;SDS011;61600;48.126;11.542;2023-01-01T03:07:09;12.30;;;6.22;;
73382;SDS011;61600;48.126;11.542;2023-01-01T03:09:44;13.80;;;6.07;;
73382;SDS011;61600;48.126;11.542;2023-01-01T03:12:20;10.32;;;5.97;;
73382;SDS011;61600;48.126;11.542;2023-01-01T03:15:21;12.18;;;6.00;;
73382;SDS011;61600;48.126;11.542;2023-01-01T03:17:58;15.48;;;6.13;;
73382;SDS011;61600;48.126;11.542;2023-01-01T03:20:33;13.80;;;6.50;;
73382;SDS011;61600;48.126;11.542;2023-01-01T03:23:06;12.40;;;6.68;;
73382;SDS011;61600;48.126;11.542;2023-01-01T03:25:39;18.67;;;6.78;;
73382;SDS011;61600;48.126;11.542;2023-01-01T03:28:47;15.73;;;7.13;;
73382;SDS011;61600;48.126;11.542;2023-01-01T03:31:18;14.23;;;6.75;;
73382;SDS011;61600;48.126;11.542;2023-01-01T03:33:48;14.23;;;6.78;;
73382;SDS011;61600;48.126;11.542;2023-01-01T03:36:21;15.07;;;7.63;;
73382;SDS011;61600;48.126;11.542;2023-01-01T03:38:57;16.10;;;7.65;;
73382;SDS011;61600;48.126;11.542;2023-01-01T03:41:31;13.07;;;6.72;;
73382;SDS011;61600;48.126;11.542;2023-01-01T03:44:12;19.63;;;8.80;;
73382;SDS011;61600;48.126;11.542;2023-01-01T03:46:46;17.20;;;8.25;;
73382;SDS011;61600;48.126;11.542;2023-01-01T03:49:12;14.27;;;7.15;;
73382;SDS011;61600;48.126;11.542;2023-01-01T03:51:49;15.60;;;8.18;;
73382;SDS011;61600;48.126;11.542;2023-01-01T04:00:09;20.80;;;8.48;;
73382;SDS011;61600;48.126;11.542;2023-01-01T04:02:47;20.00;;;8.38;;
73382;SDS011;61600;48.126;11.542;2023-01-01T04:05:16;18.70;;;8.73;;
73382;SDS011;61600;48.126;11.542;2023-01-01T04:07:44;19.80;;;8.80;;
73382;SDS011;61600;48.126;11.542;2023-01-01T04:10:11;19.00;;;9.02;;
73382;SDS011;61600;48.126;11.542;2023-01-01T04:12:47;19.30;;;9.80;;
73382;SDS011;61600;48.126;11.542;2023-01-01T04:15:15;20.50;;;9.38;;
73382;SDS011;61600;48.126;11.542;2023-01-01T04:20:07;22.35;;;9.52;;
73382;SDS011;61600;48.126;11.542;2023-01-01T04:22:34;18.80;;;9.25;;
73382;SDS011;61600;48.126;11.542;2023-01-01T04:24:59;20.88;;;9.60;;
73382;SDS011;61600;48.126;11.542;2023-01-01T04:27:25;21.27;;;9.80;;
73382;SDS011;61600;48.126;11.542;2023-01-01T04:29:51;22.25;;;9.80;;
73382;SDS011;61600;48.126;11.542;2023-01-01T04:32:17;20.20;;;10.20;;
73382;SDS011;61600;48.126;11.542;2023-01-01T04:34:43;19.50;;;8.98;;
73382;SDS011;61600;48.126;11.542;2023-01-01T04:37:09;19.98;;;10.77;;
73382;SDS011;61600;48.126;11.542;2023-01-01T04:39:34;22.05;;;10.40;;
73382;SDS011;61600;48.126;11.542;2023-01-01T04:42:00;17.60;;;8.98;;
73382;SDS011;61600;48.126;11.542;2023-01-01T04:44:26;22.02;;;9.93;;
73382;SDS011;61600;48.126;11.542;2023-01-01T04:46:52;22.48;;;9.57;;
73382;SDS011;61600;48.126;11.542;2023-01-01T04:49:17;21.65;;;11.20;;
73382;SDS011;61600;48.126;11.542;2023-01-01T04:51:46;19.08;;;9.75;;
73382;SDS011;61600;48.126;11.542;2023-01-01T04:54:12;20.65;;;10.38;;
73382;SDS011;61600;48.126;11.542;2023-01-01T04:56:38;19.90;;;10.23;;
73382;SDS011;61600;48.126;11.542;2023-01-01T04:59:04;22.63;;;10.40;;
73382;SDS011;61600;48.126;11.542;2023-01-01T05:01:30;18.63;;;9.68;;
73382;SDS011;61600;48.126;11.542;2023-01-01T05:03:56;25.83;;;10.85;;
73382;SDS011;61600;48.126;11.542;2023-01-01T05:06:23;18.58;;;9.80;;
73382;SDS011;61600;48.126;11.542;2023-01-01T05:08:51;22.10;;;10.75;;
73382;SDS011;61600;48.126;11.542;2023-01-01T05:11:20;19.55;;;9.90;;
73382;SDS011;61600;48.126;11.542;2023-01-01T05:13:48;21.17;;;9.55;;
73382;SDS011;61600;48.126;11.542;2023-01-01T05:16:16;17.33;;;9.73;;
73382;SDS011;61600;48.126;11.542;2023-01-01T05:18:44;17.95;;;9.20;;
73382;SDS011;61600;48.126;11.542;2023-01-01T05:21:14;19.80;;;9.52;;
73382;SDS011;61600;48.126;11.542;2023-01-01T05:23:42;16.42;;;8.57;;
73382;SDS011;61600;48.126;11.542;2023-01-01T05:26:12;19.67;;;9.18;;
73382;SDS011;61600;48.126;11.542;2023-01-01T05:28:43;15.25;;;8.32;;
73382;SDS011;61600;48.126;11.542;2023-01-01T05:31:13;16.58;;;7.60;;
73382;SDS011;61600;48.126;11.542;2023-01-01T05:33:41;13.65;;;6.60;;
73382;SDS011;61600;48.126;11.542;2023-01-01T05:36:07;13.50;;;6.53;;
73382;SDS011;61600;48.126;11.542;2023-01-01T05:38:34;11.90;;;5.53;;
73382;SDS011;61600;48.126;11.542;2023-01-01T05:41:07;8.30;;;4.75;;
73382;SDS011;61600;48.126;11.542;2023-01-01T05:43:35;13.88;;;5.78;;
73382;SDS011;61600;48.126;11.542;2023-01-01T05:46:02;11.80;;;5.00;;
73382;SDS011;61600;48.126;11.542;2023-01-01T05:48:29;10.10;;;5.30;;
73382;SDS011;61600;48.126;11.542;2023-01-01T05:51:06;12.43;;;4.82;;
73382;SDS011;61600;48.126;11.542;2023-01-01T05:53:33;11.15;;;4.95;;
73382;SDS011;61600;48.126;11.542;2023-01-01T05:56:00;10.00;;;4.53;;
73382;SDS011;61600;48.126;11.542;2023-01-01T05:58:26;9.05;;;4.20;;
73382;SDS011;61600;48.126;11.542;2023-01-01T06:00:53;7.40;;;3.67;;
73382;SDS011;61600;48.126;11.542;2023-01-01T06:03:19;7.70;;;3.80;;
73382;SDS011;61600;48.126;11.542;2023-01-01T06:05:45;8.13;;;4.03;;
73382;SDS011;61600;48.126;11.542;2023-01-01T06:08:11;7.10;;;3.30;;
73382;SDS011;61600;48.126;11.542;2023-01-01T06:10:37;5.35;;;2.35;;
73382;SDS011;61600;48.126;11.542;2023-01-01T06:13:03;5.57;;;2.78;;
73382;SDS011;61600;48.126;11.542;2023-01-01T06:15:29;7.65;;;3.00;;
73382;SDS011;61600;48.126;11.542;2023-01-01T06:17:54;7.10;;;3.75;;
73382;SDS011;61600;48.126;11.542;2023-01-01T06:20:21;6.43;;;3.20;;
73382;SDS011;61600;48.126;11.542;2023-01-01T06:22:47;6.03;;;2.80;;
73382;SDS011;61600;48.126;11.542;2023-01-01T06:25:13;5.53;;;2.72;;
73382;SDS011;61600;48.126;11.542;2023-01-01T06:27:38;5.88;;;2.60;;
73382;SDS011;61600;48.126;11.542;2023-01-01T06:30:05;7.50;;;2.72;;
73382;SDS011;61600;48.126;11.542;2023-01-01T06:32:32;6.18;;;2.88;;
73382;SDS011;61600;48.126;11.542;2023-01-01T06:34:58;6.88;;;3.10;;
73382;SDS011;61600;48.126;11.542;2023-01-01T06:37:23;5.80;;;3.17;;
73382;SDS011;61600;48.126;11.542;2023-01-01T06:39:50;6.78;;;3.20;;
73382;SDS011;61600;48.126;11.542;2023-01-01T06:42:16;6.03;;;2.70;;
73382;SDS011;61600;48.126;11.542;2023-01-01T06:44:41;10.48;;;3.40;;
73382;SDS011;61600;48.126;11.542;2023-01-01T06:47:07;6.80;;;2.85;;
73382;SDS011;61600;48.126;11.542;2023-01-01T06:49:33;5.88;;;3.00;;
73382;SDS011;61600;48.126;11.542;2023-01-01T06:51:59;7.85;;;3.05;;
73382;SDS011;61600;48.126;11.542;2023-01-01T06:54:24;7.18;;;3.40;;
73382;SDS011;61600;48.126;11.542;2023-01-01T06:56:50;6.75;;;2.72;;
73382;SDS011;61600;48.126;11.542;2023-01-01T06:59:16;6.75;;;3.28;;
73382;SDS011;61600;48.126;11.542;2023-01-01T07:01:42;5.13;;;3.10;;
73382;SDS011;61600;48.126;11.542;2023-01-01T07:04:14;5.32;;;2.63;;
73382;SDS011;61600;48.126;11.542;2023-01-01T07:06:41;6.38;;;3.05;;
73382;SDS011;61600;48.126;11.542;2023-01-01T07:09:07;6.40;;;2.28;;
73382;SDS011;61600;48.126;11.542;2023-01-01T07:11:34;5.85;;;2.92;;
73382;SDS011;61600;48.126;11.542;2023-01-01T07:14:00;4.78;;;2.40;;
73382;SDS011;61600;48.126;11.542;2023-01-01T07:16:26;5.25;;;2.80;;
73382;SDS011;61600;48.126;11.542;2023-01-01T07:18:52;5.38;;;2.28;;
73382;SDS011;61600;48.126;11.542;2023-01-01T07:21:32;5.60;;;2.38;;
73382;SDS011;61600;48.126;11.542;2023-01-01T07:24:04;5.13;;;2.45;;
73382;SDS011;61600;48.126;11.542;2023-01-01T07:26:31;4.53;;;2.22;;
73382;SDS011;61600;48.126;11.542;2023-01-01T07:28:57;5.22;;;2.47;;
73382;SDS011;61600;48.126;11.542;2023-01-01T07:31:23;4.45;;;2.45;;
73382;SDS011;61600;48.126;11.542;2023-01-01T07:33:49;4.65;;;2.38;;
73382;SDS011;61600;48.126;11.542;2023-01-01T07:36:15;4.85;;;2.47;;
73382;SDS011;61600;48.126;11.542;2023-01-01T07:38:41;5.72;;;2.60;;
73382;SDS011;61600;48.126;11.542;2023-01-01T07:41:06;3.85;;;2.17;;
73382;SDS011;61600;48.126;11.542;2023-01-01T07:43:32;4.82;;;2.13;;
73382;SDS011;61600;48.126;11.542;2023-01-01T07:45:58;6.75;;;2.72;;
73382;SDS011;61600;48.126;11.542;2023-01-01T07:48:25;7.78;;;2.53;;
73382;SDS011;61600;48.126;11.542;2023-01-01T07:50:51;4.75;;;2.22;;
73382;SDS011;61600;48.126;11.542;2023-01-01T07:53:17;4.40;;;2.53;;
73382;SDS011;61600;48.126;11.542;2023-01-01T07:55:43;5.32;;;2.22;;
73382;SDS011;61600;48.126;11.542;2023-01-01T07:58:10;4.18;;;2.25;;
73382;SDS011;61600;48.126;11.542;2023-01-01T08:00:36;6.43;;;2.92;;
73382;SDS011;61600;48.126;11.542;2023-01-01T08:03:02;5.43;;;2.53;;
73382;SDS011;61600;48.126;11.542;2023-01-01T08:05:28;6.88;;;2.80;;
73382;SDS011;61600;48.126;11.542;2023-01-01T08:07:54;6.22;;;2.80;;
73382;SDS011;61600;48.126;11.542;2023-01-01T08:10:20;6.10;;;2.78;;
73382;SDS011;61600;48.126;11.542;2023-01-01T08:12:46;6.70;;;3.53;;
73382;SDS011;61600;48.126;11.542;2023-01-01T08:15:12;7.00;;;3.03;;
73382;SDS011;61600;48.126;11.542;2023-01-01T08:17:39;7.28;;;3.63;;
73382;SDS011;61600;48.126;11.542;2023-01-01T08:20:05;7.65;;;3.92;;
73382;SDS011;61600;48.126;11.542;2023-01-01T08:22:31;8.27;;;3.88;;
73382;SDS011;61600;48.126;11.542;2023-01-01T08:24:57;7.88;;;4.00;;
73382;SDS011;61600;48.126;11.542;2023-01-01T08:27:23;6.43;;;3.40;;
73382;SDS011;61600;48.126;11.542;2023-01-01T08:29:49;7.20;;;3.67;;
73382;SDS011;61600;48.126;11.542;2023-01-01T08:32:14;9.40;;;4.40;;
73382;SDS011;61600;48.126;11.542;2023-01-01T08:34:40;7.65;;;3.55;;
73382;SDS011;61600;48.126;11.542;2023-01-01T08:37:08;7.95;;;3.35;;
73382;SDS011;61600;48.126;11.542;2023-01-01T08:39:37;7.25;;;3.90;;
73382;SDS011;61600;48.126;11.542;2023-01-01T08:42:02;6.35;;;3.42;;
73382;SDS011;61600;48.126;11.542;2023-01-01T08:44:28;7.20;;;3.47;;
73382;SDS011;61600;48.126;11.542;2023-01-01T08:46:54;8.20;;;3.60;;
73382;SDS011;61600;48.126;11.542;2023-01-01T08:49:21;7.38;;;3.25;;
73382;SDS011;61600;48.126;11.542;2023-01-01T08:51:47;6.28;;;3.15;;
73382;SDS011;61600;48.126;11.542;2023-01-01T08:54:12;5.90;;;3.03;;
73382;SDS011;61600;48.126;11.542;2023-01-01T08:56:38;7.13;;;3.03;;
73382;SDS011;61600;48.126;11.542;2023-01-01T08:59:04;8.23;;;3.22;;
73382;SDS011;61600;48.126;11.542;2023-01-01T09:01:30;4.72;;;2.38;;
73382;SDS011;61600;48.126;11.542;2023-01-01T09:03:56;5.57;;;2.20;;
73382;SDS011;61600;48.126;11.542;2023-01-01T09:06:21;5.82;;;2.20;;
73382;SDS011;61600;48.126;11.542;2023-01-01T09:08:47;5.47;;;2.22;;
73382;SDS011;61600;48.126;11.542;2023-01-01T09:11:14;5.07;;;1.90;;
73382;SDS011;61600;48.126;11.542;2023-01-01T09:13:47;6.95;;;2.25;;
73382;SDS011;61600;48.126;11.542;2023-01-01T09:16:13;4.95;;;2.35;;
73382;SDS011;61600;48.126;11.542;2023-01-01T09:18:39;4.82;;;2.20;;
73382;SDS011;61600;48.126;11.542;2023-01-01T09:23:31;4.28;;;2.05;;
73382;SDS011;61600;48.126;11.542;2023-01-01T09:26:07;5.85;;;2.40;;
73382;SDS011;61600;48.126;11.542;2023-01-01T09:28:34;5.35;;;2.30;;
73382;SDS011;61600;48.126;11.542;2023-01-01T09:31:05;4.90;;;2.20;;
73382;SDS011;61600;48.126;11.542;2023-01-01T09:33:50;4.82;;;2.65;;
73382;SDS011;61600;48.126;11.542;2023-01-01T09:38:42;5.03;;;2.00;;
73382;SDS011;61600;48.126;11.542;2023-01-01T09:41:18;5.00;;;2.45;;
73382;SDS011;61600;48.126;11.542;2023-01-01T09:46:53;4.20;;;2.40;;
73382;SDS011;61600;48.126;11.542;2023-01-01T09:49:27;6.15;;;2.70;;
73382;SDS011;61600;48.126;11.542;2023-01-01T09:51:55;3.90;;;1.90;;
73382;SDS011;61600;48.126;11.542;2023-01-01T09:54:30;5.88;;;2.75;;
73382;SDS011;61600;48.126;11.542;2023-01-01T09:56:58;5.70;;;2.25;;
73382;SDS011;61600;48.126;11.542;2023-01-01T09:59:28;4.10;;;2.17;;
73382;SDS011;61600;48.126;11.542;2023-01-01T10:04:29;3.72;;;1.95;;
73382;SDS011;61600;48.126;11.542;2023-01-01T10:07:17;4.28;;;2.05;;
73382;SDS011;61600;48.126;11.542;2023-01-01T10:15:20;5.63;;;2.30;;
73382;SDS011;61600;48.126;11.542;2023-01-01T10:17:51;4.60;;;1.70;;
73382;SDS011;61600;48.126;11.542;2023-01-01T10:20:23;5.43;;;2.35;;
73382;SDS011;61600;48.126;11.542;2023-01-01T10:22:51;3.88;;;1.50;;
73382;SDS011;61600;48.126;11.542;2023-01-01T10:25:26;4.20;;;1.80;;
73382;SDS011;61600;48.126;11.542;2023-01-01T10:28:03;3.83;;;1.83;;
73382;SDS011;61600;48.126;11.542;2023-01-01T10:30:46;3.50;;;1.60;;
73382;SDS011;61600;48.126;11.542;2023-01-01T10:33:13;3.38;;;1.85;;
73382;SDS011;61600;48.126;11.542;2023-01-01T10:38:11;4.40;;;1.60;;
73382;SDS011;61600;48.126;11.542;2023-01-01T10:40:47;3.75;;;1.85;;
73382;SDS011;61600;48.126;11.542;2023-01-01T10:43:14;3.95;;;1.98;;
73382;SDS011;61600;48.126;11.542;2023-01-01T10:45:43;5.20;;;1.60;;
73382;SDS011;61600;48.126;11.542;2023-01-01T10:48:20;3.50;;;1.48;;
73382;SDS011;61600;48.126;11.542;2023-01-01T10:50:52;2.80;;;1.60;;
73382;SDS011;61600;48.126;11.542;2023-01-01T10:53:23;2.95;;;1.40;;
73382;SDS011;61600;48.126;11.542;2023-01-01T10:58:46;2.63;;;1.40;;
73382;SDS011;61600;48.126;11.542;2023-01-01T11:06:24;2.10;;;1.30;;
73382;SDS011;61600;48.126;11.542;2023-01-01T11:08:55;3.40;;;1.60;;
73382;SDS011;61600;48.126;11.542;2023-01-01T11:11:27;3.22;;;1.20;;
73382;SDS011;61600;48.126;11.542;2023-01-01T11:13:54;5.45;;;1.42;;
73382;SDS011;61600;48.126;11.542;2023-01-01T11:16:22;3.85;;;1.67;;
73382;SDS011;61600;48.126;11.542;2023-01-01T11:18:50;3.30;;;1.58;;
73382;SDS011;61600;48.126;11.542;2023-01-01T11:21:20;2.38;;;1.40;;
73382;SDS011;61600;48.126;11.542;2023-01-01T11:23:48;2.72;;;1.35;;
73382;SDS011;61600;48.126;11.542;2023-01-01T11:28:41;3.90;;;1.50;;
73382;SDS011;61600;48.126;11.542;2023-01-01T11:31:23;2.97;;;1.23;;
73382;SDS011;61600;48.126;11.542;2023-01-01T11:33:54;3.08;;;1.35;;
73382;SDS011;61600;48.126;11.542;2023-01-01T11:36:25;3.53;;;1.40;;
73382;SDS011;61600;48.126;11.542;2023-01-01T11:39:16;2.30;;;1.20;;
73382;SDS011;61600;48.126;11.542;2023-01-01T11:41:50;8.60;;;1.70;;
73382;SDS011;61600;48.126;11.542;2023-01-01T11:46:52;2.17;;;1.00;;
73382;SDS011;61600;48.126;11.542;2023-01-01T11:49:22;3.72;;;1.40;;
73382;SDS011;61600;48.126;11.542;2023-01-01T11:51:52;2.53;;;1.10;;
73382;SDS011;61600;48.126;11.542;2023-01-01T11:56:54;1.88;;;1.02;;
73382;SDS011;61600;48.126;11.542;2023-01-01T11:59:27;2.22;;;1.08;;
73382;SDS011;61600;48.126;11.542;2023-01-01T12:02:02;1.70;;;0.88;;
73382;SDS011;61600;48.126;11.542;2023-01-01T12:04:30;2.00;;;1.00;;
73382;SDS011;61600;48.126;11.542;2023-01-01T12:07:06;4.03;;;1.30;;
73382;SDS011;61600;48.126;11.542;2023-01-01T12:12:07;2.90;;;1.17;;
73382;SDS011;61600;48.126;11.542;2023-01-01T12:14:49;3.10;;;1.10;;
73382;SDS011;61600;48.126;11.542;2023-01-01T12:17:43;1.75;;;0.90;;
73382;SDS011;61600;48.126;11.542;2023-01-01T12:22:34;1.48;;;0.95;;
73382;SDS011;61600;48.126;11.542;2023-01-01T12:25:00;2.65;;;0.90;;
73382;SDS011;61600;48.126;11.542;2023-01-01T12:27:35;3.17;;;1.30;;
73382;SDS011;61600;48.126;11.542;2023-01-01T12:30:18;3.25;;;1.60;;
73382;SDS011;61600;48.126;11.542;2023-01-01T12:32:54;5.28;;;2.10;;
73382;SDS011;61600;48.126;11.542;2023-01-01T12:35:35;2.92;;;1.63;;
73382;SDS011;61600;48.126;11.542;2023-01-01T12:38:19;4.20;;;1.92;;
73382;SDS011;61600;48.126;11.542;2023-01-01T12:46:45;3.70;;;1.80;;
73382;SDS011;61600;48.126;11.542;2023-01-01T12:49:14;5.55;;;1.60;;
73382;SDS011;61600;48.126;11.542;2023-01-01T12:57:16;3.55;;;1.70;;
73382;SDS011;61600;48.126;11.542;2023-01-01T12:59:48;3.20;;;1.58;;
73382;SDS011;61600;48.126;11.542;2023-01-01T13:02:23;4.40;;;1.67;;
73382;SDS011;61600;48.126;11.542;2023-01-01T13:04:56;3.40;;;1.90;;
73382;SDS011;61600;48.126;11.542;2023-01-01T13:07:32;3.72;;;1.73;;
73382;SDS011;61600;48.126;11.542;2023-01-01T13:10:16;4.82;;;1.80;;
73382;SDS011;61600;48.126;11.542;2023-01-01T13:12:42;5.05;;;1.83;;
73382;SDS011;61600;48.126;11.542;2023-01-01T13:18:04;3.78;;;1.73;;
73382;SDS011;61600;48.126;11.542;2023-01-01T13:20:44;4.30;;;2.15;;
73382;SDS011;61600;48.126;11.542;2023-01-01T13:31:16;3.42;;;1.52;;
73382;SDS011;61600;48.126;11.542;2023-01-01T13:33:42;3.95;;;2.00;;
73382;SDS011;61600;48.126;11.542;2023-01-01T13:43:49;7.88;;;2.50;;
73382;SDS011;61600;48.126;11.542;2023-01-01T13:46:26;8.80;;;2.53;;
73382;SDS011;61600;48.126;11.542;2023-01-01T13:49:19;4.15;;;1.60;;
73382;SDS011;61600;48.126;11.542;2023-01-01T14:03:39;2.53;;;1.17;;
73382;SDS011;61600;48.126;11.542;2023-01-01T14:06:10;4.57;;;1.80;;
73382;SDS011;61600;48.126;11.542;2023-01-01T14:08:39;6.43;;;1.48;;
73382;SDS011;61600;48.126;11.542;2023-01-01T14:11:38;3.65;;;1.63;;
73382;SDS011;61600;48.126;11.542;2023-01-01T14:13:57;4.80;;;1.92;;
73382;SDS011;61600;48.126;11.542;2023-01-01T14:16:24;5.30;;;1.38;;
73382;SDS011;61600;48.126;11.542;2023-01-01T14:19:01;5.57;;;1.77;;
73382;SDS011;61600;48.126;11.542;2023-01-01T14:21:45;3.28;;;1.20;;
73382;SDS011;61600;48.126;11.542;2023-01-01T14:24:12;3.30;;;1.25;;
73382;SDS011;61600;48.126;11.542;2023-01-01T14:26:42;4.40;;;1.65;;
73382;SDS011;61600;48.126;11.542;2023-01-01T14:29:08;8.13;;;2.33;;
73382;SDS011;61600;48.126;11.542;2023-01-01T14:31:39;3.97;;;1.50;;
73382;SDS011;61600;48.126;11.542;2023-01-01T14:34:18;6.45;;;1.70;;
73382;SDS011;61600;48.126;11.542;2023-01-01T14:36:51;3.20;;;1.50;;
73382;SDS011;61600;48.126;11.542;2023-01-01T14:39:22;5.45;;;1.75;;
73382;SDS011;61600;48.126;11.542;2023-01-01T14:41:53;4.28;;;1.65;;
73382;SDS011;61600;48.126;11.542;2023-01-01T14:44:23;3.70;;;1.60;;
73382;SDS011;61600;48.126;11.542;2023-01-01T14:46:57;3.97;;;1.65;;
73382;SDS011;61600;48.126;11.542;2023-01-01T14:49:27;4.03;;;1.38;;
73382;SDS011;61600;48.126;11.542;2023-01-01T14:52:39;2.80;;;1.50;;
73382;SDS011;61600;48.126;11.542;2023-01-01T14:54:53;3.63;;;1.50;;
73382;SDS011;61600;48.126;11.542;2023-01-01T14:57:29;3.63;;;1.65;;
73382;SDS011;61600;48.126;11.542;2023-01-01T14:59:56;2.45;;;1.15;;
73382;SDS011;61600;48.126;11.542;2023-01-01T15:02:23;4.30;;;1.38;;
73382;SDS011;61600;48.126;11.542;2023-01-01T15:04:52;3.10;;;1.60;;
73382;SDS011;61600;48.126;11.542;2023-01-01T15:07:19;3.75;;;1.75;;
73382;SDS011;61600;48.126;11.542;2023-01-01T15:09:56;3.47;;;1.50;;
73382;SDS011;61600;48.126;11.542;2023-01-01T15:12:27;4.45;;;2.15;;
73382;SDS011;61600;48.126;11.542;2023-01-01T15:14:54;4.47;;;1.58;;
73382;SDS011;61600;48.126;11.542;2023-01-01T15:17:23;4.03;;;1.60;;
73382;SDS011;61600;48.126;11.542;2023-01-01T15:22:44;5.88;;;1.50;;
73382;SDS011;61600;48.126;11.542;2023-01-01T15:25:13;5.43;;;1.67;;
73382;SDS011;61600;48.126;11.542;2023-01-01T15:27:41;6.00;;;1.80;;
73382;SDS011;61600;48.126;11.542;2023-01-01T15:32:54;3.40;;;1.60;;
73382;SDS011;61600;48.126;11.542;2023-01-01T15:35:25;3.60;;;1.60;;
73382;SDS011;61600;48.126;11.542;2023-01-01T15:37:59;4.40;;;1.75;;
73382;SDS011;61600;48.126;11.542;2023-01-01T15:40:36;3.72;;;1.75;;
73382;SDS011;61600;48.126;11.542;2023-01-01T15:43:07;4.53;;;1.80;;
73382;SDS011;61600;48.126;11.542;2023-01-01T15:45:38;6.32;;;2.35;;
73382;SDS011;61600;48.126;11.542;2023-01-01T15:53:24;6.88;;;2.63;;
73382;SDS011;61600;48.126;11.542;2023-01-01T15:56:00;8.32;;;3.17;;
73382;SDS011;61600;48.126;11.542;2023-01-01T15:58:48;6.68;;;2.72;;
73382;SDS011;61600;48.126;11.542;2023-01-01T16:01:19;6.03;;;2.55;;
73382;SDS011;61600;48.126;11.542;2023-01-01T16:03:48;7.22;;;2.67;;
73382;SDS011;61600;48.126;11.542;2023-01-01T16:06:17;8.93;;;2.80;;
73382;SDS011;61600;48.126;11.542;2023-01-01T16:08:45;8.10;;;2.45;;
73382;SDS011;61600;48.126;11.542;2023-01-01T16:11:11;7.70;;;2.95;;
73382;SDS011;61600;48.126;11.542;2023-01-01T16:13:38;6.65;;;3.03;;
73382;SDS011;61600;48.126;11.542;2023-01-01T16:16:04;5.60;;;2.42;;
73382;SDS011;61600;48.126;11.542;2023-01-01T16:18:52;5.13;;;2.63;;
73382;SDS011;61600;48.126;11.542;2023-01-01T16:21:19;7.57;;;3.28;;
73382;SDS011;61600;48.126;11.542;2023-01-01T16:23:48;10.18;;;3.35;;
73382;SDS011;61600;48.126;11.542;2023-01-01T16:26:13;7.13;;;3.33;;
73382;SDS011;61600;48.126;11.542;2023-01-01T16:28:39;8.05;;;2.83;;
73382;SDS011;61600;48.126;11.542;2023-01-01T16:31:05;6.10;;;2.95;;
73382;SDS011;61600;48.126;11.542;2023-01-01T16:33:31;7.78;;;2.72;;
73382;SDS011;61600;48.126;11.542;2023-01-01T16:35:57;6.95;;;3.03;;
73382;SDS011;61600;48.126;11.542;2023-01-01T16:38:22;5.28;;;2.60;;
73382;SDS011;61600;48.126;11.542;2023-01-01T16:40:49;7.78;;;3.05;;
73382;SDS011;61600;48.126;11.542;2023-01-01T16:43:15;5.60;;;2.42;;